sensor_id;sensor_type;location;lat;lon;timestamp;P1;durP1;ratioP1;P2;durP2;ratioP2
32096;SDS011;18610;49.916;8.284;2022-10-14T00:01:01;28.38;;;16.92;;
32096;SDS011;18610;49.916;8.284;2022-10-14T00:03:29;22.23;;;15.20;;
32096;SDS011;18610;49.916;8.284;2022-10-14T00:05:57;21.73;;;15.63;;
32096;SDS011;18610;49.916;8.284;2022-10-14T00:08:24;27.05;;;15.90;;
32096;SDS011;18610;49.916;8.284;2022-10-14T00:10:51;30.67;;;16.67;;
32096;SDS011;18610;49.916;8.284;2022-10-14T00:13:17;21.25;;;15.38;;
32096;SDS011;18610;49.916;8.284;2022-10-14T00:15:46;22.80;;;15.70;;
32096;SDS011;18610;49.916;8.284;2022-10-14T00:18:13;25.83;;;15.20;;
32096;SDS011;18610;49.916;8.284;2022-10-14T00:20:40;25.35;;;15.18;;
32096;SDS011;18610;49.916;8.284;2022-10-14T00:23:06;19.17;;;15.02;;
32096;SDS011;18610;49.916;8.284;2022-10-14T00:25:36;32.03;;;15.25;;
32096;SDS011;18610;49.916;8.284;2022-10-14T00:28:04;25.00;;;15.25;;
32096;SDS011;18610;49.916;8.284;2022-10-14T00:30:31;26.30;;;14.57;;
32096;SDS011;18610;49.916;8.284;2022-10-14T00:32:59;25.92;;;15.43;;
32096;SDS011;18610;49.916;8.284;2022-10-14T00:35:26;23.92;;;14.70;;
32096;SDS011;18610;49.916;8.284;2022-10-14T00:37:53;21.83;;;14.70;;
32096;SDS011;18610;49.916;8.284;2022-10-14T00:40:20;28.33;;;16.23;;
32096;SDS011;18610;49.916;8.284;2022-10-14T00:42:47;26.83;;;14.13;;
32096;SDS011;18610;49.916;8.284;2022-10-14T00:45:15;24.20;;;15.05;;
32096;SDS011;18610;49.916;8.284;2022-10-14T00:47:44;25.23;;;13.90;;
32096;SDS011;18610;49.916;8.284;2022-10-14T00:50:15;26.77;;;15.07;;
32096;SDS011;18610;49.916;8.284;2022-10-14T00:52:43;24.40;;;14.52;;
32096;SDS011;18610;49.916;8.284;2022-10-14T00:55:11;22.27;;;13.82;;
32096;SDS011;18610;49.916;8.284;2022-10-14T00:57:41;21.90;;;14.50;;
32096;SDS011;18610;49.916;8.284;2022-10-14T01:00:09;25.02;;;16.05;;
32096;SDS011;18610;49.916;8.284;2022-10-14T01:02:38;23.48;;;13.57;;
32096;SDS011;18610;49.916;8.284;2022-10-14T01:05:06;22.88;;;14.77;;
32096;SDS011;18610;49.916;8.284;2022-10-14T01:07:39;20.02;;;13.27;;
32096;SDS011;18610;49.916;8.284;2022-10-14T01:10:18;20.20;;;13.68;;
32096;SDS011;18610;49.916;8.284;2022-10-14T01:12:54;23.00;;;14.30;;
32096;SDS011;18610;49.916;8.284;2022-10-14T01:15:32;21.63;;;12.88;;
32096;SDS011;18610;49.916;8.284;2022-10-14T01:18:10;22.15;;;12.50;;
32096;SDS011;18610;49.916;8.284;2022-10-14T01:20:46;18.95;;;12.80;;
32096;SDS011;18610;49.916;8.284;2022-10-14T01:26:36;19.92;;;12.70;;
32096;SDS011;18610;49.916;8.284;2022-10-14T01:29:17;20.35;;;12.00;;
32096;SDS011;18610;49.916;8.284;2022-10-14T01:31:56;15.95;;;11.38;;
32096;SDS011;18610;49.916;8.284;2022-10-14T01:34:29;20.00;;;14.25;;
32096;SDS011;18610;49.916;8.284;2022-10-14T01:37:00;20.05;;;13.02;;
32096;SDS011;18610;49.916;8.284;2022-10-14T01:39:31;22.97;;;13.10;;
32096;SDS011;18610;49.916;8.284;2022-10-14T01:42:05;24.13;;;12.85;;
32096;SDS011;18610;49.916;8.284;2022-10-14T01:44:35;20.30;;;12.13;;
32096;SDS011;18610;49.916;8.284;2022-10-14T01:47:09;18.80;;;12.20;;
32096;SDS011;18610;49.916;8.284;2022-10-14T01:49:41;26.98;;;12.68;;
32096;SDS011;18610;49.916;8.284;2022-10-14T01:52:12;24.42;;;12.80;;
32096;SDS011;18610;49.916;8.284;2022-10-14T01:54:44;18.95;;;12.32;;
32096;SDS011;18610;49.916;8.284;2022-10-14T01:57:14;21.65;;;13.10;;
32096;SDS011;18610;49.916;8.284;2022-10-14T01:59:45;23.73;;;13.07;;
32096;SDS011;18610;49.916;8.284;2022-10-14T02:02:14;24.13;;;12.95;;
32096;SDS011;18610;49.916;8.284;2022-10-14T02:04:42;25.17;;;12.05;;
32096;SDS011;18610;49.916;8.284;2022-10-14T02:07:10;25.42;;;11.82;;
32096;SDS011;18610;49.916;8.284;2022-10-14T02:09:45;18.75;;;12.18;;
32096;SDS011;18610;49.916;8.284;2022-10-14T02:12:21;15.73;;;10.95;;
32096;SDS011;18610;49.916;8.284;2022-10-14T02:14:59;27.60;;;13.48;;
32096;SDS011;18610;49.916;8.284;2022-10-14T02:17:36;22.65;;;13.73;;
32096;SDS011;18610;49.916;8.284;2022-10-14T02:20:15;20.92;;;13.43;;
32096;SDS011;18610;49.916;8.284;2022-10-14T02:22:49;22.98;;;13.45;;
32096;SDS011;18610;49.916;8.284;2022-10-14T02:25:21;17.63;;;12.82;;
32096;SDS011;18610;49.916;8.284;2022-10-14T02:27:52;18.48;;;12.50;;
32096;SDS011;18610;49.916;8.284;2022-10-14T02:30:20;22.33;;;13.15;;
32096;SDS011;18610;49.916;8.284;2022-10-14T02:32:48;22.73;;;13.65;;
32096;SDS011;18610;49.916;8.284;2022-10-14T02:35:17;21.25;;;14.10;;
32096;SDS011;18610;49.916;8.284;2022-10-14T02:37:46;18.38;;;12.75;;
32096;SDS011;18610;49.916;8.284;2022-10-14T02:40:15;21.17;;;12.00;;
32096;SDS011;18610;49.916;8.284;2022-10-14T02:42:46;19.60;;;12.77;;
32096;SDS011;18610;49.916;8.284;2022-10-14T02:45:13;18.88;;;12.68;;
32096;SDS011;18610;49.916;8.284;2022-10-14T02:47:40;26.80;;;15.07;;
32096;SDS011;18610;49.916;8.284;2022-10-14T02:50:09;28.65;;;14.15;;
32096;SDS011;18610;49.916;8.284;2022-10-14T02:52:36;21.30;;;14.65;;
32096;SDS011;18610;49.916;8.284;2022-10-14T02:55:03;35.13;;;19.88;;
32096;SDS011;18610;49.916;8.284;2022-10-14T02:57:31;26.48;;;16.88;;
32096;SDS011;18610;49.916;8.284;2022-10-14T02:59:57;38.90;;;17.88;;
32096;SDS011;18610;49.916;8.284;2022-10-14T03:02:24;34.83;;;19.85;;
32096;SDS011;18610;49.916;8.284;2022-10-14T03:04:51;36.95;;;22.17;;
32096;SDS011;18610;49.916;8.284;2022-10-14T03:07:19;31.15;;;19.15;;
32096;SDS011;18610;49.916;8.284;2022-10-14T03:09:45;29.92;;;20.17;;
32096;SDS011;18610;49.916;8.284;2022-10-14T03:12:12;37.45;;;19.27;;
32096;SDS011;18610;49.916;8.284;2022-10-14T03:14:39;30.02;;;18.92;;
32096;SDS011;18610;49.916;8.284;2022-10-14T03:17:06;34.10;;;18.02;;
32096;SDS011;18610;49.916;8.284;2022-10-14T03:19:32;24.10;;;17.25;;
32096;SDS011;18610;49.916;8.284;2022-10-14T03:21:59;30.50;;;18.08;;
32096;SDS011;18610;49.916;8.284;2022-10-14T03:24:28;25.75;;;17.85;;
32096;SDS011;18610;49.916;8.284;2022-10-14T03:26:54;27.35;;;17.88;;
32096;SDS011;18610;49.916;8.284;2022-10-14T03:29:21;22.70;;;16.80;;
32096;SDS011;18610;49.916;8.284;2022-10-14T03:31:48;28.38;;;17.50;;
32096;SDS011;18610;49.916;8.284;2022-10-14T03:34:15;30.45;;;18.23;;
32096;SDS011;18610;49.916;8.284;2022-10-14T03:36:42;28.35;;;17.05;;
32096;SDS011;18610;49.916;8.284;2022-10-14T03:39:09;29.25;;;18.00;;
32096;SDS011;18610;49.916;8.284;2022-10-14T03:41:37;27.48;;;17.80;;
32096;SDS011;18610;49.916;8.284;2022-10-14T03:44:04;32.85;;;18.45;;
32096;SDS011;18610;49.916;8.284;2022-10-14T03:46:31;29.15;;;18.77;;
32096;SDS011;18610;49.916;8.284;2022-10-14T03:48:58;33.20;;;17.75;;
32096;SDS011;18610;49.916;8.284;2022-10-14T03:51:25;31.92;;;19.13;;
32096;SDS011;18610;49.916;8.284;2022-10-14T03:53:51;27.95;;;18.58;;
32096;SDS011;18610;49.916;8.284;2022-10-14T03:56:18;27.05;;;18.42;;
32096;SDS011;18610;49.916;8.284;2022-10-14T03:58:46;26.15;;;18.88;;
32096;SDS011;18610;49.916;8.284;2022-10-14T04:01:13;31.02;;;19.73;;
32096;SDS011;18610;49.916;8.284;2022-10-14T04:03:40;35.40;;;19.83;;
32096;SDS011;18610;49.916;8.284;2022-10-14T04:06:10;34.92;;;18.80;;
32096;SDS011;18610;49.916;8.284;2022-10-14T04:08:37;26.92;;;18.02;;
32096;SDS011;18610;49.916;8.284;2022-10-14T04:11:04;27.30;;;18.60;;
32096;SDS011;18610;49.916;8.284;2022-10-14T04:13:31;25.88;;;17.60;;
32096;SDS011;18610;49.916;8.284;2022-10-14T04:16:02;28.42;;;17.50;;
32096;SDS011;18610;49.916;8.284;2022-10-14T04:18:29;29.95;;;18.15;;
32096;SDS011;18610;49.916;8.284;2022-10-14T04:20:58;35.50;;;16.70;;
32096;SDS011;18610;49.916;8.284;2022-10-14T04:23:25;29.67;;;17.70;;
32096;SDS011;18610;49.916;8.284;2022-10-14T04:25:52;26.50;;;18.00;;
32096;SDS011;18610;49.916;8.284;2022-10-14T04:28:19;30.33;;;18.55;;
32096;SDS011;18610;49.916;8.284;2022-10-14T04:30:48;31.20;;;18.00;;
32096;SDS011;18610;49.916;8.284;2022-10-14T04:33:17;27.05;;;18.95;;
32096;SDS011;18610;49.916;8.284;2022-10-14T04:35:44;30.52;;;18.42;;
32096;SDS011;18610;49.916;8.284;2022-10-14T04:38:10;30.95;;;19.05;;
32096;SDS011;18610;49.916;8.284;2022-10-14T04:40:37;32.08;;;18.58;;
32096;SDS011;18610;49.916;8.284;2022-10-14T04:43:04;31.05;;;18.17;;
32096;SDS011;18610;49.916;8.284;2022-10-14T04:45:31;28.88;;;18.65;;
32096;SDS011;18610;49.916;8.284;2022-10-14T04:47:57;24.13;;;17.40;;
32096;SDS011;18610;49.916;8.284;2022-10-14T04:50:26;28.83;;;18.08;;
32096;SDS011;18610;49.916;8.284;2022-10-14T04:52:52;24.98;;;18.15;;
32096;SDS011;18610;49.916;8.284;2022-10-14T04:55:19;26.05;;;17.58;;
32096;SDS011;18610;49.916;8.284;2022-10-14T04:57:46;29.92;;;18.13;;
32096;SDS011;18610;49.916;8.284;2022-10-14T05:00:13;32.15;;;17.60;;
32096;SDS011;18610;49.916;8.284;2022-10-14T05:02:40;24.92;;;16.02;;
32096;SDS011;18610;49.916;8.284;2022-10-14T05:05:07;30.65;;;17.23;;
32096;SDS011;18610;49.916;8.284;2022-10-14T05:07:36;27.73;;;16.02;;
32096;SDS011;18610;49.916;8.284;2022-10-14T05:10:03;27.60;;;16.25;;
32096;SDS011;18610;49.916;8.284;2022-10-14T05:12:30;30.85;;;16.50;;
32096;SDS011;18610;49.916;8.284;2022-10-14T05:14:57;29.90;;;17.92;;
32096;SDS011;18610;49.916;8.284;2022-10-14T05:17:24;22.95;;;14.98;;
32096;SDS011;18610;49.916;8.284;2022-10-14T05:19:51;26.15;;;16.98;;
32096;SDS011;18610;49.916;8.284;2022-10-14T05:22:17;25.83;;;16.85;;
32096;SDS011;18610;49.916;8.284;2022-10-14T05:24:45;29.42;;;16.60;;
32096;SDS011;18610;49.916;8.284;2022-10-14T05:27:12;26.45;;;16.58;;
32096;SDS011;18610;49.916;8.284;2022-10-14T05:29:39;30.40;;;16.60;;
32096;SDS011;18610;49.916;8.284;2022-10-14T05:32:06;24.67;;;15.15;;
32096;SDS011;18610;49.916;8.284;2022-10-14T05:34:32;22.13;;;16.00;;
32096;SDS011;18610;49.916;8.284;2022-10-14T05:36:59;21.77;;;15.63;;
32096;SDS011;18610;49.916;8.284;2022-10-14T05:39:26;29.98;;;14.80;;
32096;SDS011;18610;49.916;8.284;2022-10-14T05:41:54;21.13;;;15.55;;
32096;SDS011;18610;49.916;8.284;2022-10-14T05:44:21;25.40;;;15.13;;
32096;SDS011;18610;49.916;8.284;2022-10-14T05:46:48;24.17;;;15.95;;
32096;SDS011;18610;49.916;8.284;2022-10-14T05:49:15;20.00;;;14.55;;
32096;SDS011;18610;49.916;8.284;2022-10-14T05:51:43;26.60;;;16.27;;
32096;SDS011;18610;49.916;8.284;2022-10-14T05:54:10;31.42;;;16.98;;
32096;SDS011;18610;49.916;8.284;2022-10-14T05:56:37;25.13;;;15.27;;
32096;SDS011;18610;49.916;8.284;2022-10-14T05:59:05;26.42;;;13.40;;
32096;SDS011;18610;49.916;8.284;2022-10-14T06:01:32;28.20;;;15.98;;
32096;SDS011;18610;49.916;8.284;2022-10-14T06:04:00;28.88;;;14.90;;
32096;SDS011;18610;49.916;8.284;2022-10-14T06:06:27;28.45;;;15.80;;
32096;SDS011;18610;49.916;8.284;2022-10-14T06:08:53;23.27;;;15.45;;
32096;SDS011;18610;49.916;8.284;2022-10-14T06:11:20;23.67;;;15.05;;
32096;SDS011;18610;49.916;8.284;2022-10-14T06:13:47;24.98;;;15.00;;
32096;SDS011;18610;49.916;8.284;2022-10-14T06:16:16;27.52;;;14.98;;
32096;SDS011;18610;49.916;8.284;2022-10-14T06:18:42;33.92;;;16.23;;
32096;SDS011;18610;49.916;8.284;2022-10-14T06:21:09;28.20;;;15.75;;
32096;SDS011;18610;49.916;8.284;2022-10-14T06:23:37;25.83;;;16.00;;
32096;SDS011;18610;49.916;8.284;2022-10-14T06:26:04;23.20;;;15.50;;
32096;SDS011;18610;49.916;8.284;2022-10-14T06:28:33;23.58;;;14.93;;
32096;SDS011;18610;49.916;8.284;2022-10-14T06:31:00;27.02;;;14.63;;
32096;SDS011;18610;49.916;8.284;2022-10-14T06:33:28;20.70;;;14.32;;
32096;SDS011;18610;49.916;8.284;2022-10-14T06:35:56;23.83;;;15.02;;
32096;SDS011;18610;49.916;8.284;2022-10-14T06:38:23;22.45;;;15.10;;
32096;SDS011;18610;49.916;8.284;2022-10-14T06:40:51;23.38;;;14.02;;
32096;SDS011;18610;49.916;8.284;2022-10-14T06:43:18;23.75;;;14.38;;
32096;SDS011;18610;49.916;8.284;2022-10-14T06:45:45;21.83;;;14.35;;
32096;SDS011;18610;49.916;8.284;2022-10-14T06:48:12;21.08;;;14.73;;
32096;SDS011;18610;49.916;8.284;2022-10-14T06:50:40;33.90;;;15.40;;
32096;SDS011;18610;49.916;8.284;2022-10-14T06:53:07;25.40;;;13.48;;
32096;SDS011;18610;49.916;8.284;2022-10-14T06:55:34;24.73;;;14.50;;
32096;SDS011;18610;49.916;8.284;2022-10-14T06:58:01;25.02;;;14.05;;
32096;SDS011;18610;49.916;8.284;2022-10-14T07:00:28;23.58;;;14.35;;
32096;SDS011;18610;49.916;8.284;2022-10-14T07:02:56;27.27;;;13.93;;
32096;SDS011;18610;49.916;8.284;2022-10-14T07:05:23;25.92;;;14.00;;
32096;SDS011;18610;49.916;8.284;2022-10-14T07:07:51;25.15;;;13.98;;
32096;SDS011;18610;49.916;8.284;2022-10-14T07:10:18;25.75;;;15.00;;
32096;SDS011;18610;49.916;8.284;2022-10-14T07:12:45;26.63;;;15.55;;
32096;SDS011;18610;49.916;8.284;2022-10-14T07:15:12;24.13;;;13.57;;
32096;SDS011;18610;49.916;8.284;2022-10-14T07:17:39;27.98;;;15.02;;
32096;SDS011;18610;49.916;8.284;2022-10-14T07:20:06;20.45;;;14.25;;
32096;SDS011;18610;49.916;8.284;2022-10-14T07:22:34;22.65;;;15.32;;
32096;SDS011;18610;49.916;8.284;2022-10-14T07:25:02;25.17;;;14.98;;
32096;SDS011;18610;49.916;8.284;2022-10-14T07:27:30;25.17;;;14.98;;
32096;SDS011;18610;49.916;8.284;2022-10-14T07:29:57;26.88;;;14.77;;
32096;SDS011;18610;49.916;8.284;2022-10-14T07:32:25;21.30;;;14.80;;
32096;SDS011;18610;49.916;8.284;2022-10-14T07:34:52;28.10;;;14.98;;
32096;SDS011;18610;49.916;8.284;2022-10-14T07:37:19;25.55;;;14.93;;
32096;SDS011;18610;49.916;8.284;2022-10-14T07:39:46;28.95;;;15.95;;
32096;SDS011;18610;49.916;8.284;2022-10-14T07:42:16;27.63;;;16.25;;
32096;SDS011;18610;49.916;8.284;2022-10-14T07:44:42;32.38;;;16.73;;
32096;SDS011;18610;49.916;8.284;2022-10-14T07:47:10;22.63;;;14.40;;
32096;SDS011;18610;49.916;8.284;2022-10-14T07:49:37;27.08;;;15.40;;
32096;SDS011;18610;49.916;8.284;2022-10-14T07:52:04;22.75;;;14.05;;
32096;SDS011;18610;49.916;8.284;2022-10-14T07:54:31;24.00;;;14.60;;
32096;SDS011;18610;49.916;8.284;2022-10-14T07:56:58;22.90;;;16.60;;
32096;SDS011;18610;49.916;8.284;2022-10-14T07:59:26;23.25;;;17.02;;
32096;SDS011;18610;49.916;8.284;2022-10-14T08:01:53;33.78;;;18.98;;
32096;SDS011;18610;49.916;8.284;2022-10-14T08:04:21;34.92;;;19.60;;
32096;SDS011;18610;49.916;8.284;2022-10-14T08:06:48;29.55;;;19.13;;
32096;SDS011;18610;49.916;8.284;2022-10-14T08:09:16;29.17;;;18.15;;
32096;SDS011;18610;49.916;8.284;2022-10-14T08:11:43;41.50;;;21.02;;
32096;SDS011;18610;49.916;8.284;2022-10-14T08:14:11;28.95;;;18.90;;
32096;SDS011;18610;49.916;8.284;2022-10-14T08:16:39;27.13;;;19.45;;
32096;SDS011;18610;49.916;8.284;2022-10-14T08:19:07;31.80;;;21.48;;
32096;SDS011;18610;49.916;8.284;2022-10-14T08:21:35;35.13;;;22.30;;
32096;SDS011;18610;49.916;8.284;2022-10-14T08:24:02;34.25;;;20.85;;
32096;SDS011;18610;49.916;8.284;2022-10-14T08:26:30;44.72;;;24.92;;
32096;SDS011;18610;49.916;8.284;2022-10-14T08:28:59;38.20;;;22.08;;
32096;SDS011;18610;49.916;8.284;2022-10-14T08:31:27;36.60;;;23.20;;
32096;SDS011;18610;49.916;8.284;2022-10-14T08:33:56;49.67;;;24.90;;
32096;SDS011;18610;49.916;8.284;2022-10-14T08:36:23;42.88;;;25.63;;
32096;SDS011;18610;49.916;8.284;2022-10-14T08:38:51;40.60;;;23.88;;
32096;SDS011;18610;49.916;8.284;2022-10-14T08:41:25;41.13;;;24.08;;
32096;SDS011;18610;49.916;8.284;2022-10-14T08:46:41;37.28;;;23.42;;
32096;SDS011;18610;49.916;8.284;2022-10-14T08:49:12;43.97;;;23.50;;
32096;SDS011;18610;49.916;8.284;2022-10-14T08:51:44;45.80;;;24.45;;
32096;SDS011;18610;49.916;8.284;2022-10-14T08:54:17;36.08;;;24.08;;
32096;SDS011;18610;49.916;8.284;2022-10-14T08:56:51;48.17;;;26.27;;
32096;SDS011;18610;49.916;8.284;2022-10-14T08:59:18;46.25;;;27.85;;
32096;SDS011;18610;49.916;8.284;2022-10-14T09:01:48;39.88;;;23.50;;
32096;SDS011;18610;49.916;8.284;2022-10-14T09:04:20;48.42;;;27.42;;
32096;SDS011;18610;49.916;8.284;2022-10-14T09:06:47;51.63;;;29.23;;
32096;SDS011;18610;49.916;8.284;2022-10-14T09:09:17;40.80;;;25.80;;
32096;SDS011;18610;49.916;8.284;2022-10-14T09:11:48;48.60;;;27.38;;
32096;SDS011;18610;49.916;8.284;2022-10-14T09:14:24;36.78;;;23.15;;
32096;SDS011;18610;49.916;8.284;2022-10-14T09:16:53;56.65;;;26.92;;
32096;SDS011;18610;49.916;8.284;2022-10-14T09:19:27;45.65;;;25.30;;
32096;SDS011;18610;49.916;8.284;2022-10-14T09:21:57;50.08;;;27.20;;
32096;SDS011;18610;49.916;8.284;2022-10-14T09:24:26;38.47;;;23.50;;
32096;SDS011;18610;49.916;8.284;2022-10-14T09:26:54;29.83;;;19.92;;
32096;SDS011;18610;49.916;8.284;2022-10-14T09:29:24;31.15;;;19.95;;
32096;SDS011;18610;49.916;8.284;2022-10-14T09:31:54;33.17;;;19.70;;
32096;SDS011;18610;49.916;8.284;2022-10-14T09:34:24;39.10;;;20.80;;
32096;SDS011;18610;49.916;8.284;2022-10-14T09:36:57;30.67;;;19.25;;
32096;SDS011;18610;49.916;8.284;2022-10-14T09:39:38;33.75;;;21.02;;
32096;SDS011;18610;49.916;8.284;2022-10-14T09:42:06;29.85;;;19.83;;
32096;SDS011;18610;49.916;8.284;2022-10-14T09:44:40;32.80;;;20.35;;
32096;SDS011;18610;49.916;8.284;2022-10-14T09:47:08;34.78;;;20.02;;
32096;SDS011;18610;49.916;8.284;2022-10-14T09:49:39;35.20;;;19.33;;
32096;SDS011;18610;49.916;8.284;2022-10-14T09:52:18;34.17;;;18.40;;
32096;SDS011;18610;49.916;8.284;2022-10-14T09:54:50;35.08;;;18.23;;
32096;SDS011;18610;49.916;8.284;2022-10-14T09:57:19;26.98;;;18.33;;
32096;SDS011;18610;49.916;8.284;2022-10-14T09:59:48;37.95;;;17.33;;
32096;SDS011;18610;49.916;8.284;2022-10-14T10:02:20;33.65;;;16.70;;
32096;SDS011;18610;49.916;8.284;2022-10-14T10:04:49;36.88;;;16.77;;
32096;SDS011;18610;49.916;8.284;2022-10-14T10:07:23;32.17;;;15.75;;
32096;SDS011;18610;49.916;8.284;2022-10-14T10:09:54;26.10;;;15.20;;
32096;SDS011;18610;49.916;8.284;2022-10-14T10:12:22;27.25;;;16.95;;
32096;SDS011;18610;49.916;8.284;2022-10-14T10:14:57;26.40;;;14.55;;
32096;SDS011;18610;49.916;8.284;2022-10-14T10:17:27;26.55;;;15.93;;
32096;SDS011;18610;49.916;8.284;2022-10-14T10:20:11;24.58;;;16.67;;
32096;SDS011;18610;49.916;8.284;2022-10-14T10:22:44;31.67;;;16.77;;
32096;SDS011;18610;49.916;8.284;2022-10-14T10:25:16;24.98;;;15.88;;
32096;SDS011;18610;49.916;8.284;2022-10-14T10:27:45;26.05;;;15.18;;
32096;SDS011;18610;49.916;8.284;2022-10-14T10:30:17;23.05;;;14.68;;
32096;SDS011;18610;49.916;8.284;2022-10-14T10:32:49;27.60;;;14.48;;
32096;SDS011;18610;49.916;8.284;2022-10-14T10:35:25;34.72;;;14.75;;
32096;SDS011;18610;49.916;8.284;2022-10-14T10:38:00;22.30;;;15.45;;
32096;SDS011;18610;49.916;8.284;2022-10-14T10:40:37;23.77;;;13.35;;
32096;SDS011;18610;49.916;8.284;2022-10-14T10:46:09;37.80;;;15.00;;
32096;SDS011;18610;49.916;8.284;2022-10-14T10:48:46;23.88;;;13.30;;
32096;SDS011;18610;49.916;8.284;2022-10-14T10:51:21;23.33;;;13.38;;
32096;SDS011;18610;49.916;8.284;2022-10-14T10:53:58;28.48;;;13.52;;
32096;SDS011;18610;49.916;8.284;2022-10-14T10:56:39;23.23;;;12.52;;
32096;SDS011;18610;49.916;8.284;2022-10-14T11:05:02;25.73;;;12.90;;
32096;SDS011;18610;49.916;8.284;2022-10-14T11:07:38;29.80;;;13.85;;
32096;SDS011;18610;49.916;8.284;2022-10-14T11:10:35;19.73;;;12.05;;
32096;SDS011;18610;49.916;8.284;2022-10-14T11:13:26;23.88;;;13.25;;
32096;SDS011;18610;49.916;8.284;2022-10-14T11:16:01;22.27;;;13.23;;
32096;SDS011;18610;49.916;8.284;2022-10-14T11:18:34;25.98;;;13.40;;
32096;SDS011;18610;49.916;8.284;2022-10-14T11:21:10;20.98;;;12.90;;
32096;SDS011;18610;49.916;8.284;2022-10-14T11:23:47;22.80;;;12.10;;
32096;SDS011;18610;49.916;8.284;2022-10-14T11:26:31;21.55;;;12.57;;
32096;SDS011;18610;49.916;8.284;2022-10-14T11:29:08;19.20;;;12.10;;
32096;SDS011;18610;49.916;8.284;2022-10-14T11:31:48;21.00;;;13.48;;
32096;SDS011;18610;49.916;8.284;2022-10-14T11:34:37;21.98;;;12.57;;
32096;SDS011;18610;49.916;8.284;2022-10-14T11:37:15;25.67;;;13.80;;
32096;SDS011;18610;49.916;8.284;2022-10-14T11:39:56;23.10;;;12.95;;
32096;SDS011;18610;49.916;8.284;2022-10-14T11:42:30;25.40;;;14.05;;
32096;SDS011;18610;49.916;8.284;2022-10-14T11:45:12;21.73;;;12.73;;
32096;SDS011;18610;49.916;8.284;2022-10-14T11:47:50;19.55;;;13.18;;
32096;SDS011;18610;49.916;8.284;2022-10-14T11:50:23;23.88;;;13.77;;
32096;SDS011;18610;49.916;8.284;2022-10-14T11:52:55;22.77;;;13.52;;
32096;SDS011;18610;49.916;8.284;2022-10-14T11:55:28;27.35;;;14.00;;
32096;SDS011;18610;49.916;8.284;2022-10-14T11:58:02;24.10;;;13.60;;
32096;SDS011;18610;49.916;8.284;2022-10-14T12:00:31;27.30;;;14.63;;
32096;SDS011;18610;49.916;8.284;2022-10-14T12:03:19;23.40;;;14.63;;
32096;SDS011;18610;49.916;8.284;2022-10-14T12:05:54;20.45;;;13.60;;
32096;SDS011;18610;49.916;8.284;2022-10-14T12:08:26;27.30;;;16.05;;
32096;SDS011;18610;49.916;8.284;2022-10-14T12:10:59;21.70;;;14.85;;
32096;SDS011;18610;49.916;8.284;2022-10-14T12:13:32;22.70;;;14.18;;
32096;SDS011;18610;49.916;8.284;2022-10-14T12:16:04;28.58;;;13.48;;
32096;SDS011;18610;49.916;8.284;2022-10-14T12:18:37;24.27;;;13.25;;
32096;SDS011;18610;49.916;8.284;2022-10-14T12:21:09;24.17;;;13.63;;
32096;SDS011;18610;49.916;8.284;2022-10-14T12:23:44;27.77;;;13.57;;
32096;SDS011;18610;49.916;8.284;2022-10-14T12:26:15;23.17;;;12.63;;
32096;SDS011;18610;49.916;8.284;2022-10-14T12:28:57;23.45;;;12.52;;
32096;SDS011;18610;49.916;8.284;2022-10-14T12:31:34;23.95;;;13.73;;
32096;SDS011;18610;49.916;8.284;2022-10-14T12:37:13;21.25;;;13.23;;
32096;SDS011;18610;49.916;8.284;2022-10-14T12:40:21;22.38;;;12.23;;
32096;SDS011;18610;49.916;8.284;2022-10-14T12:43:02;19.98;;;12.00;;
32096;SDS011;18610;49.916;8.284;2022-10-14T12:45:37;25.23;;;11.55;;
32096;SDS011;18610;49.916;8.284;2022-10-14T12:48:14;20.38;;;11.85;;
32096;SDS011;18610;49.916;8.284;2022-10-14T12:50:44;24.55;;;12.48;;
32096;SDS011;18610;49.916;8.284;2022-10-14T12:53:16;13.95;;;10.35;;
32096;SDS011;18610;49.916;8.284;2022-10-14T12:55:48;19.40;;;11.20;;
32096;SDS011;18610;49.916;8.284;2022-10-14T12:58:24;20.08;;;11.20;;
32096;SDS011;18610;49.916;8.284;2022-10-14T13:00:55;17.80;;;10.73;;
32096;SDS011;18610;49.916;8.284;2022-10-14T13:03:25;25.90;;;11.85;;
32096;SDS011;18610;49.916;8.284;2022-10-14T13:21:26;17.65;;;11.50;;
32096;SDS011;18610;49.916;8.284;2022-10-14T13:23:56;17.20;;;11.40;;
32096;SDS011;18610;49.916;8.284;2022-10-14T13:26:27;18.13;;;11.73;;
32096;SDS011;18610;49.916;8.284;2022-10-14T13:29:03;17.23;;;11.48;;
32096;SDS011;18610;49.916;8.284;2022-10-14T13:31:42;18.30;;;10.50;;
32096;SDS011;18610;49.916;8.284;2022-10-14T13:34:19;18.23;;;10.73;;
32096;SDS011;18610;49.916;8.284;2022-10-14T13:37:01;22.00;;;11.27;;
32096;SDS011;18610;49.916;8.284;2022-10-14T13:39:42;19.67;;;11.65;;
32096;SDS011;18610;49.916;8.284;2022-10-14T13:42:11;21.15;;;12.45;;
32096;SDS011;18610;49.916;8.284;2022-10-14T13:44:38;23.42;;;11.38;;
32096;SDS011;18610;49.916;8.284;2022-10-14T13:47:05;16.15;;;10.23;;
32096;SDS011;18610;49.916;8.284;2022-10-14T13:49:36;14.18;;;10.57;;
32096;SDS011;18610;49.916;8.284;2022-10-14T13:52:07;15.00;;;9.80;;
32096;SDS011;18610;49.916;8.284;2022-10-14T13:54:43;16.20;;;10.65;;
32096;SDS011;18610;49.916;8.284;2022-10-14T13:57:11;27.98;;;11.55;;
32096;SDS011;18610;49.916;8.284;2022-10-14T13:59:39;15.15;;;10.10;;
32096;SDS011;18610;49.916;8.284;2022-10-14T14:02:10;14.85;;;10.10;;
32096;SDS011;18610;49.916;8.284;2022-10-14T14:04:39;17.23;;;9.73;;
32096;SDS011;18610;49.916;8.284;2022-10-14T14:07:11;17.08;;;10.00;;
32096;SDS011;18610;49.916;8.284;2022-10-14T14:09:46;11.27;;;7.93;;
32096;SDS011;18610;49.916;8.284;2022-10-14T14:12:15;15.25;;;8.32;;
32096;SDS011;18610;49.916;8.284;2022-10-14T14:14:43;16.60;;;7.70;;
32096;SDS011;18610;49.916;8.284;2022-10-14T14:17:11;15.63;;;7.93;;
32096;SDS011;18610;49.916;8.284;2022-10-14T14:19:42;11.00;;;6.85;;
32096;SDS011;18610;49.916;8.284;2022-10-14T14:22:15;41.85;;;24.23;;
32096;SDS011;18610;49.916;8.284;2022-10-14T14:24:44;35.67;;;23.00;;
32096;SDS011;18610;49.916;8.284;2022-10-14T14:27:12;11.57;;;7.55;;
32096;SDS011;18610;49.916;8.284;2022-10-14T14:29:40;15.10;;;8.80;;
32096;SDS011;18610;49.916;8.284;2022-10-14T14:32:12;12.93;;;8.95;;
32096;SDS011;18610;49.916;8.284;2022-10-14T14:34:42;10.10;;;6.25;;
32096;SDS011;18610;49.916;8.284;2022-10-14T14:37:14;13.40;;;6.35;;
32096;SDS011;18610;49.916;8.284;2022-10-14T14:39:53;9.05;;;6.00;;
32096;SDS011;18610;49.916;8.284;2022-10-14T14:42:21;12.63;;;6.30;;
32096;SDS011;18610;49.916;8.284;2022-10-14T14:44:49;10.15;;;6.13;;
32096;SDS011;18610;49.916;8.284;2022-10-14T14:47:17;15.63;;;5.78;;
32096;SDS011;18610;49.916;8.284;2022-10-14T14:49:44;10.20;;;7.03;;
32096;SDS011;18610;49.916;8.284;2022-10-14T14:52:11;10.05;;;6.18;;
32096;SDS011;18610;49.916;8.284;2022-10-14T14:54:42;10.70;;;6.13;;
32096;SDS011;18610;49.916;8.284;2022-10-14T14:57:11;12.32;;;6.32;;
32096;SDS011;18610;49.916;8.284;2022-10-14T14:59:43;10.18;;;6.57;;
32096;SDS011;18610;49.916;8.284;2022-10-14T15:02:17;12.80;;;6.13;;
32096;SDS011;18610;49.916;8.284;2022-10-14T15:04:46;10.68;;;5.60;;
32096;SDS011;18610;49.916;8.284;2022-10-14T15:07:26;9.23;;;6.13;;
32096;SDS011;18610;49.916;8.284;2022-10-14T15:09:54;7.35;;;5.90;;
32096;SDS011;18610;49.916;8.284;2022-10-14T15:12:23;9.48;;;5.93;;
32096;SDS011;18610;49.916;8.284;2022-10-14T15:14:52;8.40;;;5.60;;